Time;durP1;ratioP1;P1;durP2;ratioP2;P2;SDS_P1;SDS_P2;PMS_P1;PMS_P2;Temp;Humidity;BMP_temperature;BMP_pressure;BME280_temperature;BME280_humidity;BME280_pressure;Samples;Min_cycle;Max_cycle;Signal;HPM_P1;HPM_P2
2021/07/23 00:01:54;;;;;;;14.70;13.17;;;17.50;99.90;;;;;;6241814;22;20458;-86
2021/07/23 00:04:20;;;;;;;15.57;13.97;;;17.60;99.90;;;;;;6241782;22;20161;-86
2021/07/23 00:06:48;;;;;;;15.20;13.70;;;17.70;99.90;;;;;;6242509;22;20200;-86
2021/07/23 00:09:13;;;;;;;15.40;14.00;;;17.80;99.90;;;;;;6242783;22;20237;-86
2021/07/23 00:11:39;;;;;;;15.10;13.53;;;17.90;99.90;;;;;;6242267;22;20427;-87
2021/07/23 00:14:05;;;;;;;13.87;12.57;;;17.90;99.90;;;;;;6239314;22;20163;-86
2021/07/23 00:16:30;;;;;;;14.33;12.87;;;17.90;99.90;;;;;;6239423;22;20653;-87
2021/07/23 00:18:56;;;;;;;17.23;13.40;;;18.00;99.90;;;;;;6240808;22;20194;-87
2021/07/23 00:21:22;;;;;;;16.10;14.37;;;17.90;99.90;;;;;;6241038;22;20203;-87
2021/07/23 00:23:47;;;;;;;14.33;12.90;;;17.80;99.90;;;;;;6241916;22;20212;-87
2021/07/23 00:26:13;;;;;;;14.13;12.60;;;17.60;99.90;;;;;;6241478;22;20159;-87
2021/07/23 00:28:40;;;;;;;13.30;11.90;;;17.60;99.90;;;;;;6241823;22;20249;-87
2021/07/23 00:31:06;;;;;;;13.03;11.80;;;17.50;99.90;;;;;;6241273;22;20404;-87
2021/07/23 00:33:32;;;;;;;12.53;11.30;;;17.30;99.90;;;;;;6240477;22;20874;-86
2021/07/23 00:35:58;;;;;;;14.27;12.80;;;17.00;99.90;;;;;;6240803;22;20273;-87
2021/07/23 00:38:23;;;;;;;13.57;12.17;;;16.90;99.90;;;;;;6241223;22;20393;-86
2021/07/23 00:40:49;;;;;;;14.17;12.77;;;16.90;99.90;;;;;;6268544;22;20169;-86
2021/07/23 00:43:15;;;;;;;13.33;12.00;;;16.80;99.90;;;;;;6241607;22;20389;-86
2021/07/23 00:45:41;;;;;;;14.43;13.00;;;16.80;99.90;;;;;;6241000;22;20169;-87
2021/07/23 00:48:07;;;;;;;14.13;12.60;;;16.90;99.90;;;;;;6242332;22;20162;-86
2021/07/23 00:50:33;;;;;;;13.73;12.43;;;16.80;99.90;;;;;;6241756;22;20246;-87
2021/07/23 00:53:02;;;;;;;15.10;11.93;;;16.80;99.90;;;;;;6242219;22;20170;-87
2021/07/23 00:55:28;;;;;;;15.37;13.00;;;16.70;99.90;;;;;;6237651;22;20432;-87
2021/07/23 00:57:55;;;;;;;15.57;13.83;;;16.60;99.90;;;;;;6240821;22;20397;-87
2021/07/23 01:00:20;;;;;;;14.20;12.70;;;16.40;99.90;;;;;;6240894;22;20250;-87
2021/07/23 01:02:52;;;;;;;14.80;13.30;;;16.20;99.90;;;;;;6241583;22;20792;-87
2021/07/23 01:05:19;;;;;;;16.03;13.63;;;16.20;99.90;;;;;;6241253;22;20208;-87
2021/07/23 01:07:46;;;;;;;16.60;14.40;;;16.20;99.90;;;;;;6242023;22;20385;-86
2021/07/23 01:10:12;;;;;;;13.53;12.23;;;16.10;99.90;;;;;;6241803;22;20393;-86
2021/07/23 01:12:37;;;;;;;15.40;13.50;;;16.10;99.90;;;;;;6243433;22;20396;-86
2021/07/23 01:15:04;;;;;;;14.70;13.20;;;16.10;99.90;;;;;;6243611;22;20734;-86
2021/07/23 01:17:30;;;;;;;16.17;12.87;;;16.20;99.90;;;;;;6243619;22;20249;-86
2021/07/23 01:20:07;;;;;;;14.73;13.23;;;16.30;99.90;;;;;;6242578;22;20460;-86
2021/07/23 01:22:34;;;;;;;13.47;12.03;;;16.30;99.90;;;;;;6243599;22;20820;-86
2021/07/23 01:25:00;;;;;;;13.53;12.23;;;16.20;99.90;;;;;;6243407;22;20412;-86
2021/07/23 01:27:27;;;;;;;14.93;13.43;;;16.30;99.90;;;;;;6243836;22;20737;-86
2021/07/23 01:30:05;;;;;;;13.77;12.40;;;16.50;99.90;;;;;;6240274;22;20416;-87
2021/07/23 01:32:30;;;;;;;15.57;14.07;;;16.60;99.90;;;;;;6238938;22;20392;-86
2021/07/23 01:34:56;;;;;;;15.23;13.73;;;16.60;99.90;;;;;;6243513;22;20397;-87
2021/07/23 01:37:22;;;;;;;15.00;13.50;;;16.70;99.90;;;;;;6243286;22;20165;-87
2021/07/23 01:39:48;;;;;;;15.60;14.00;;;16.70;99.90;;;;;;6241876;22;20248;-86
2021/07/23 01:42:14;;;;;;;15.97;14.30;;;16.80;99.90;;;;;;6243894;22;20393;-86
2021/07/23 01:44:40;;;;;;;16.13;13.70;;;16.70;99.90;;;;;;6243481;22;20466;-86
2021/07/23 01:47:05;;;;;;;16.60;14.47;;;16.60;99.90;;;;;;6244776;22;20166;-86
2021/07/23 01:49:31;;;;;;;16.10;13.43;;;16.50;99.90;;;;;;6243241;22;20381;-86
2021/07/23 01:51:56;;;;;;;15.10;13.60;;;16.60;99.90;;;;;;6243283;22;20450;-87
2021/07/23 01:54:22;;;;;;;13.50;12.10;;;16.50;99.90;;;;;;6242525;22;20162;-86
2021/07/23 01:56:48;;;;;;;15.93;14.07;;;16.50;99.90;;;;;;6243346;22;20158;-86
2021/07/23 01:59:14;;;;;;;17.20;14.00;;;16.50;99.90;;;;;;6242445;22;20285;-86
2021/07/23 02:01:40;;;;;;;17.90;13.60;;;16.50;99.90;;;;;;6242044;22;20173;-86
2021/07/23 02:04:05;;;;;;;15.93;13.50;;;16.50;99.90;;;;;;6243201;22;20405;-86
2021/07/23 02:06:31;;;;;;;15.00;12.90;;;16.40;99.90;;;;;;6243111;22;20197;-86
2021/07/23 02:08:57;;;;;;;15.70;13.93;;;16.50;99.90;;;;;;6243527;22;20166;-86
2021/07/23 02:11:22;;;;;;;17.30;13.67;;;16.40;99.90;;;;;;6242882;22;20158;-86
2021/07/23 02:13:48;;;;;;;15.73;13.47;;;16.30;99.90;;;;;;6243316;22;20166;-86
2021/07/23 02:16:13;;;;;;;14.57;13.20;;;16.20;99.90;;;;;;6243079;22;20164;-86
2021/07/23 02:18:39;;;;;;;16.00;13.30;;;16.20;99.90;;;;;;6242895;22;20632;-86
2021/07/23 02:21:07;;;;;;;15.20;13.70;;;16.30;99.90;;;;;;6242740;22;20170;-86
2021/07/23 02:23:32;;;;;;;13.83;12.40;;;16.20;99.90;;;;;;6243160;22;20188;-86
2021/07/23 02:25:58;;;;;;;14.40;13.00;;;16.20;99.90;;;;;;6243584;22;20760;-86
2021/07/23 02:28:24;;;;;;;14.00;12.43;;;16.10;99.90;;;;;;6242539;22;20223;-86
2021/07/23 02:30:49;;;;;;;14.07;12.67;;;16.10;99.90;;;;;;6242809;22;20249;-86
2021/07/23 02:33:15;;;;;;;14.40;12.90;;;16.20;99.90;;;;;;6242962;22;20162;-87
2021/07/23 02:35:41;;;;;;;15.63;13.70;;;16.20;99.90;;;;;;6242940;22;20173;-86
2021/07/23 02:38:06;;;;;;;14.70;13.13;;;16.20;99.90;;;;;;6243260;22;20184;-86
2021/07/23 02:40:32;;;;;;;13.97;12.60;;;16.20;99.90;;;;;;6242577;22;20190;-86
2021/07/23 02:42:58;;;;;;;14.50;13.10;;;16.20;99.90;;;;;;6243136;22;20171;-86
2021/07/23 02:45:23;;;;;;;15.93;13.90;;;16.30;99.90;;;;;;6242937;22;20162;-86
2021/07/23 02:47:50;;;;;;;15.63;13.93;;;16.20;99.90;;;;;;6242911;22;20158;-86
2021/07/23 02:50:16;;;;;;;14.70;13.10;;;16.00;99.90;;;;;;6242234;22;20155;-86
2021/07/23 02:52:42;;;;;;;15.83;14.17;;;16.00;99.90;;;;;;6242384;22;20487;-86
2021/07/23 02:55:08;;;;;;;18.40;14.23;;;16.00;99.90;;;;;;6242646;22;20192;-86
2021/07/23 02:57:34;;;;;;;17.50;14.47;;;16.00;99.90;;;;;;6242785;22;20216;-87
2021/07/23 03:00:00;;;;;;;14.60;13.10;;;15.90;99.90;;;;;;6241512;22;20440;-87
2021/07/23 03:02:25;;;;;;;15.10;13.50;;;15.80;99.90;;;;;;6243188;22;20575;-87
2021/07/23 03:04:51;;;;;;;15.17;13.50;;;15.90;99.90;;;;;;6242431;22;20401;-86
2021/07/23 03:07:16;;;;;;;15.23;13.63;;;15.90;99.90;;;;;;6242356;22;20173;-87
2021/07/23 03:09:42;;;;;;;14.93;13.23;;;15.90;99.90;;;;;;6242155;22;20162;-87
2021/07/23 03:12:08;;;;;;;14.93;13.43;;;15.80;99.90;;;;;;6243499;22;20169;-86
2021/07/23 03:14:33;;;;;;;14.77;13.33;;;15.80;99.90;;;;;;6243481;22;20166;-86
2021/07/23 03:16:59;;;;;;;15.07;13.57;;;15.60;99.90;;;;;;6243177;22;20165;-87
2021/07/23 03:19:25;;;;;;;15.03;13.50;;;15.50;99.90;;;;;;6242728;22;20204;-86
2021/07/23 03:21:54;;;;;;;15.40;13.90;;;15.60;99.90;;;;;;6243242;22;20488;-86
2021/07/23 03:24:19;;;;;;;15.60;13.10;;;15.70;99.90;;;;;;6242672;22;20161;-86
2021/07/23 03:26:45;;;;;;;16.10;14.50;;;15.50;99.90;;;;;;6243065;22;20401;-87
2021/07/23 03:29:11;;;;;;;18.53;16.50;;;15.40;99.90;;;;;;6242652;22;20171;-86
2021/07/23 03:31:36;;;;;;;24.50;19.80;;;15.30;99.90;;;;;;6243166;22;20187;-86
2021/07/23 03:34:02;;;;;;;16.50;14.80;;;15.30;99.90;;;;;;6242724;22;20162;-86
2021/07/23 03:36:28;;;;;;;17.60;15.50;;;15.30;99.90;;;;;;6243748;22;20242;-86
2021/07/23 03:38:53;;;;;;;16.00;14.00;;;15.30;99.90;;;;;;6242738;22;20473;-86
2021/07/23 03:41:19;;;;;;;15.47;13.87;;;15.20;99.90;;;;;;6242064;22;20679;-86
2021/07/23 03:43:44;;;;;;;19.13;15.17;;;15.20;99.90;;;;;;6242134;22;20607;-86
2021/07/23 03:46:10;;;;;;;18.60;13.33;;;15.10;99.90;;;;;;6241446;22;20641;-86
2021/07/23 03:48:36;;;;;;;14.70;13.20;;;15.20;99.90;;;;;;6241359;22;20166;-86
2021/07/23 03:51:01;;;;;;;13.93;12.50;;;15.40;99.90;;;;;;6241651;22;20215;-86
2021/07/23 03:53:27;;;;;;;18.63;13.73;;;15.40;99.90;;;;;;6241440;22;20495;-87
2021/07/23 03:55:53;;;;;;;16.57;14.37;;;15.70;99.90;;;;;;6242600;22;20248;-86
2021/07/23 03:58:18;;;;;;;15.73;13.27;;;15.70;99.90;;;;;;6241312;22;20661;-87
2021/07/23 04:00:44;;;;;;;13.90;12.43;;;15.80;99.90;;;;;;6239715;22;20273;-87
2021/07/23 04:03:09;;;;;;;14.77;13.03;;;15.80;99.90;;;;;;6242348;22;20165;-85
2021/07/23 04:05:35;;;;;;;14.93;13.40;;;15.70;99.90;;;;;;6242816;22;20162;-86
2021/07/23 04:08:01;;;;;;;16.60;14.00;;;15.70;99.90;;;;;;6241417;22;20169;-86
2021/07/23 04:10:27;;;;;;;16.90;14.13;;;15.50;99.90;;;;;;6241294;22;20159;-86
2021/07/23 04:12:52;;;;;;;16.80;14.67;;;15.60;99.90;;;;;;6215520;22;20166;-86
2021/07/23 04:15:19;;;;;;;15.43;13.83;;;15.60;99.90;;;;;;6241171;22;20406;-86
2021/07/23 04:17:45;;;;;;;14.67;13.17;;;15.70;99.90;;;;;;6241066;22;21106;-86
2021/07/23 04:20:11;;;;;;;15.53;13.57;;;15.60;99.90;;;;;;6241741;22;20519;-86
2021/07/23 04:22:37;;;;;;;16.03;13.40;;;15.60;99.90;;;;;;6242440;22;20497;-86
2021/07/23 04:25:03;;;;;;;16.47;13.97;;;15.70;99.90;;;;;;6242052;22;20401;-87
2021/07/23 04:27:29;;;;;;;17.50;13.70;;;15.70;99.90;;;;;;6242026;22;20174;-87
2021/07/23 04:29:55;;;;;;;18.77;13.67;;;15.70;99.90;;;;;;6241723;22;20170;-86
2021/07/23 04:32:20;;;;;;;20.27;14.40;;;15.70;99.90;;;;;;6241349;22;20470;-86
2021/07/23 04:34:46;;;;;;;14.47;12.93;;;15.80;99.90;;;;;;6241210;22;20163;-87
2021/07/23 04:37:12;;;;;;;14.50;13.03;;;15.80;99.90;;;;;;6241568;22;20541;-86
2021/07/23 04:39:37;;;;;;;15.70;12.63;;;15.80;99.90;;;;;;6242780;22;20204;-86
2021/07/23 04:42:08;;;;;;;14.33;12.87;;;15.90;99.90;;;;;;6244066;22;20162;-86
2021/07/23 04:44:34;;;;;;;17.30;13.90;;;15.80;99.90;;;;;;6244056;22;20499;-86
2021/07/23 04:47:02;;;;;;;13.90;12.50;;;15.80;99.90;;;;;;6243848;22;20587;-86
2021/07/23 04:49:28;;;;;;;15.43;13.83;;;15.90;99.90;;;;;;6242208;22;20158;-86
2021/07/23 04:51:55;;;;;;;14.30;12.80;;;16.00;99.90;;;;;;6243498;22;20381;-86
2021/07/23 04:54:21;;;;;;;16.57;14.10;;;16.10;99.90;;;;;;6244662;22;20162;-86
2021/07/23 04:56:50;;;;;;;15.10;12.97;;;16.10;99.90;;;;;;6241907;22;20388;-86
2021/07/23 04:59:16;;;;;;;15.37;12.80;;;16.10;99.90;;;;;;6239516;22;20445;-86
2021/07/23 05:01:53;;;;;;;18.07;13.90;;;16.00;99.90;;;;;;6269221;22;20468;-87
2021/07/23 05:04:19;;;;;;;14.57;13.07;;;15.90;99.90;;;;;;6216377;22;20491;-87
2021/07/23 05:06:45;;;;;;;14.47;13.00;;;16.00;99.90;;;;;;6241612;22;20446;-86
2021/07/23 05:09:15;;;;;;;16.17;13.77;;;16.00;99.90;;;;;;6241370;22;20397;-86
2021/07/23 05:11:44;;;;;;;14.73;13.23;;;16.00;99.90;;;;;;6241987;22;20902;-86
2021/07/23 05:14:10;;;;;;;15.57;13.97;;;15.90;99.90;;;;;;6241923;22;20397;-86
2021/07/23 05:16:36;;;;;;;15.10;13.60;;;15.90;99.90;;;;;;6242851;22;20981;-87
2021/07/23 05:19:04;;;;;;;15.67;13.00;;;15.90;99.90;;;;;;6242180;22;20628;-87
2021/07/23 05:21:30;;;;;;;16.30;14.60;;;16.00;99.90;;;;;;6242974;22;20389;-86
2021/07/23 05:23:56;;;;;;;14.40;12.93;;;16.00;99.90;;;;;;6242123;22;20492;-86
2021/07/23 05:26:22;;;;;;;16.33;14.67;;;16.00;99.90;;;;;;6241237;22;20527;-86
2021/07/23 05:28:49;;;;;;;16.80;14.97;;;16.10;99.90;;;;;;6243543;22;20232;-86
2021/07/23 05:31:15;;;;;;;16.10;13.80;;;16.10;99.90;;;;;;6216618;22;20627;-86
2021/07/23 05:36:25;;;;;;;17.23;14.20;;;16.10;99.90;;;;;;6270025;22;20237;-86
2021/07/23 05:38:53;;;;;;;15.40;13.27;;;16.20;99.90;;;;;;6241585;22;20436;-87
2021/07/23 05:41:21;;;;;;;17.70;13.63;;;16.30;99.90;;;;;;6216760;22;20397;-86
2021/07/23 05:43:47;;;;;;;16.13;13.37;;;16.50;99.90;;;;;;6241322;22;20397;-86
2021/07/23 05:46:23;;;;;;;14.00;12.53;;;16.50;99.90;;;;;;6243836;22;20393;-86
2021/07/23 05:48:49;;;;;;;15.80;13.53;;;16.60;99.90;;;;;;6241978;22;20392;-87
2021/07/23 05:51:17;;;;;;;14.53;13.03;;;16.70;99.90;;;;;;6267717;22;20878;-87
2021/07/23 05:53:43;;;;;;;20.03;14.10;;;16.70;99.90;;;;;;6241597;22;20156;-86
2021/07/23 05:56:08;;;;;;;15.03;13.40;;;16.90;99.90;;;;;;6242904;22;20491;-86
2021/07/23 05:58:40;;;;;;;15.87;14.27;;;16.90;99.90;;;;;;6242135;22;20162;-86
2021/07/23 06:01:07;;;;;;;16.17;14.47;;;16.90;99.90;;;;;;6238926;22;20173;-86
2021/07/23 06:03:35;;;;;;;16.30;14.47;;;16.80;99.90;;;;;;6238636;22;20403;-87
2021/07/23 06:06:02;;;;;;;15.53;13.83;;;16.90;99.90;;;;;;6238672;22;20430;-87
2021/07/23 06:08:28;;;;;;;15.93;14.33;;;17.00;99.90;;;;;;6241765;22;20400;-87
2021/07/23 06:10:54;;;;;;;17.53;14.57;;;17.10;99.90;;;;;;6240637;22;20404;-86
2021/07/23 06:13:37;;;;;;;17.73;13.63;;;17.20;99.90;;;;;;6215989;22;20401;-87
2021/07/23 06:16:09;;;;;;;15.17;13.50;;;17.40;99.90;;;;;;6239755;22;20408;-87
2021/07/23 06:18:35;;;;;;;15.90;14.20;;;17.40;99.90;;;;;;6265067;22;20726;-86
2021/07/23 06:21:02;;;;;;;17.20;15.20;;;17.50;99.90;;;;;;6239888;22;20405;-88
2021/07/23 06:23:29;;;;;;;15.20;12.50;;;17.50;99.90;;;;;;6215489;22;20393;-88
2021/07/23 06:25:56;;;;;;;15.00;13.40;;;17.50;99.90;;;;;;6215854;22;20410;-87
2021/07/23 06:28:22;;;;;;;14.27;12.87;;;17.50;99.90;;;;;;6241660;22;20729;-86
2021/07/23 06:30:57;;;;;;;15.70;14.10;;;17.50;99.90;;;;;;6238975;22;20474;-87
2021/07/23 06:33:22;;;;;;;14.53;13.13;;;17.60;99.90;;;;;;6240763;22;20396;-86
2021/07/23 06:35:48;;;;;;;15.87;14.27;;;17.80;99.90;;;;;;6241249;22;20538;-86
2021/07/23 06:38:20;;;;;;;16.77;14.40;;;17.90;99.90;;;;;;6242456;22;20647;-87
2021/07/23 06:40:46;;;;;;;16.90;13.47;;;18.10;99.90;;;;;;6216405;22;20277;-87
2021/07/23 06:43:17;;;;;;;16.10;13.53;;;18.20;99.90;;;;;;6242931;22;20420;-87
2021/07/23 06:45:53;;;;;;;14.50;13.00;;;18.30;99.90;;;;;;6242304;22;20170;-87
2021/07/23 06:48:20;;;;;;;13.90;12.60;;;18.30;99.90;;;;;;6237004;22;20728;-87
2021/07/23 06:50:49;;;;;;;13.93;12.33;;;18.30;99.90;;;;;;6241744;22;20397;-87
2021/07/23 06:55:59;;;;;;;14.07;12.57;;;18.50;99.90;;;;;;6270286;22;20385;-87
2021/07/23 06:58:25;;;;;;;14.00;12.03;;;18.60;99.90;;;;;;6269453;22;20385;-87
2021/07/23 07:00:53;;;;;;;12.23;11.00;;;18.90;99.90;;;;;;6241218;22;20586;-87
2021/07/23 07:03:18;;;;;;;14.53;13.13;;;18.90;99.90;;;;;;6217651;22;20186;-87
2021/07/23 07:05:48;;;;;;;15.27;13.60;;;19.00;99.90;;;;;;6242117;22;20871;-87
2021/07/23 07:08:14;;;;;;;14.37;12.97;;;19.10;99.90;;;;;;6240751;22;20233;-87
2021/07/23 07:10:40;;;;;;;15.20;13.73;;;18.90;99.90;;;;;;6237685;22;20440;-87
2021/07/23 07:13:12;;;;;;;13.40;12.10;;;18.90;99.90;;;;;;6240357;22;20166;-87
2021/07/23 07:15:39;;;;;;;12.90;11.53;;;18.90;99.90;;;;;;6240968;22;20396;-87
2021/07/23 07:18:04;;;;;;;14.13;12.37;;;19.20;99.90;;;;;;6241737;22;20443;-86
2021/07/23 07:20:33;;;;;;;13.23;12.03;;;19.30;99.90;;;;;;6238347;22;20911;-87
2021/07/23 07:23:02;;;;;;;12.83;11.53;;;19.40;99.90;;;;;;6236331;22;20162;-87
2021/07/23 07:25:31;;;;;;;13.80;12.33;;;19.40;99.90;;;;;;6237856;22;20400;-87
2021/07/23 07:27:58;;;;;;;16.47;12.63;;;19.40;99.90;;;;;;6241609;22;20415;-87
2021/07/23 07:30:25;;;;;;;13.17;11.90;;;19.40;99.90;;;;;;6238976;22;20886;-87
2021/07/23 07:32:51;;;;;;;12.90;11.60;;;19.60;99.90;;;;;;6239891;22;20393;-87
2021/07/23 07:35:18;;;;;;;13.73;11.10;;;19.90;99.90;;;;;;6239631;22;20956;-87
2021/07/23 07:37:45;;;;;;;13.93;11.03;;;20.10;99.90;;;;;;6239935;22;20166;-87
2021/07/23 07:40:14;;;;;;;13.83;12.53;;;20.30;99.90;;;;;;6241268;22;20690;-87
2021/07/23 07:42:40;;;;;;;15.10;13.20;;;20.40;99.90;;;;;;6216105;22;20408;-87
2021/07/23 07:45:06;;;;;;;18.70;13.50;;;20.20;99.90;;;;;;6240574;22;20412;-87
2021/07/23 07:47:32;;;;;;;13.57;12.17;;;20.10;99.90;;;;;;6240552;22;20384;-86
2021/07/23 07:49:58;;;;;;;13.50;12.20;;;20.40;99.90;;;;;;6240993;22;20397;-87
2021/07/23 07:52:24;;;;;;;13.40;12.13;;;20.60;99.90;;;;;;6241492;22;20250;-87
2021/07/23 07:54:50;;;;;;;15.00;12.73;;;20.80;99.90;;;;;;6240480;22;20166;-87
2021/07/23 07:57:15;;;;;;;12.60;11.20;;;20.80;99.90;;;;;;6242521;22;20496;-87
2021/07/23 07:59:41;;;;;;;12.67;11.47;;;20.70;99.90;;;;;;6239475;22;20272;-87
2021/07/23 08:02:11;;;;;;;14.27;11.90;;;20.80;99.90;;;;;;6217050;22;20166;-87
2021/07/23 08:04:38;;;;;;;13.10;11.80;;;21.20;99.90;;;;;;6241213;22;20219;-87
2021/07/23 08:07:07;;;;;;;13.90;11.97;;;21.40;99.90;;;;;;6241885;22;20393;-87
2021/07/23 08:09:53;;;;;;;13.20;11.90;;;21.40;99.90;;;;;;6267940;22;20452;-87
2021/07/23 08:12:19;;;;;;;15.90;12.50;;;21.60;99.90;;;;;;6242145;22;20712;-87
2021/07/23 08:14:46;;;;;;;15.43;14.00;;;21.90;99.90;;;;;;6243993;22;20381;-88
2021/07/23 08:17:12;;;;;;;14.13;12.63;;;22.00;99.90;;;;;;6244396;22;20404;-87
2021/07/23 08:19:38;;;;;;;12.33;11.10;;;21.70;99.90;;;;;;6244047;22;20443;-87
2021/07/23 08:22:05;;;;;;;13.50;12.20;;;21.80;99.90;;;;;;6244984;22;20467;-88
2021/07/23 08:24:32;;;;;;;13.07;11.83;;;22.10;99.90;;;;;;6244454;22;20500;-87
2021/07/23 08:26:58;;;;;;;12.77;11.40;;;22.30;99.90;;;;;;6243795;22;20404;-87
2021/07/23 08:29:36;;;;;;;13.20;11.90;;;22.40;99.90;;;;;;6243524;22;20416;-87
2021/07/23 08:32:10;;;;;;;12.60;11.40;;;22.60;99.90;;;;;;6271865;22;20380;-87
2021/07/23 08:34:45;;;;;;;12.83;11.37;;;22.60;99.90;;;;;;6244154;22;20400;-87
2021/07/23 08:37:11;;;;;;;13.30;12.00;;;22.80;99.90;;;;;;6243785;22;20812;-87
2021/07/23 08:39:42;;;;;;;12.73;11.50;;;22.90;99.90;;;;;;6243548;22;20439;-88
2021/07/23 08:42:31;;;;;;;12.90;11.50;;;23.00;99.90;;;;;;6243754;22;20434;-87
2021/07/23 08:44:59;;;;;;;12.87;11.63;;;23.20;99.90;;;;;;6193589;22;20397;-87
2021/07/23 08:47:25;;;;;;;12.97;11.60;;;23.30;99.90;;;;;;6244211;22;20454;-88
2021/07/23 08:49:53;;;;;;;12.27;11.10;;;23.20;99.90;;;;;;6242485;22;20384;-87
2021/07/23 08:52:44;;;;;;;11.93;10.83;;;23.00;99.90;;;;;;6217179;22;20399;-87
2021/07/23 08:55:14;;;;;;;12.80;11.60;;;23.30;99.90;;;;;;6243341;22;20395;-87
2021/07/23 08:57:41;;;;;;;14.20;11.20;;;23.30;99.90;;;;;;6243321;22;20381;-87
2021/07/23 09:00:12;;;;;;;12.53;11.33;;;23.40;99.90;;;;;;6243182;22;20737;-88
2021/07/23 09:03:13;;;;;;;12.77;11.67;;;23.80;99.50;;;;;;6271162;22;20385;-87
2021/07/23 09:05:46;;;;;;;13.13;10.80;;;23.90;99.00;;;;;;6163180;22;20404;-87
2021/07/23 09:08:20;;;;;;;13.27;11.97;;;23.80;99.90;;;;;;6242600;22;20419;-87
2021/07/23 09:10:47;;;;;;;12.97;11.57;;;23.80;99.90;;;;;;6243165;22;20397;-87
2021/07/23 09:13:23;;;;;;;13.20;11.90;;;23.80;99.70;;;;;;6242103;22;20444;-87
2021/07/23 09:15:50;;;;;;;12.93;11.73;;;23.70;99.30;;;;;;6241817;22;20422;-87
2021/07/23 09:18:31;;;;;;;13.03;11.83;;;23.30;99.50;;;;;;6243309;22;20385;-86
2021/07/23 09:20:59;;;;;;;12.57;11.40;;;23.10;99.90;;;;;;6242174;22;20763;-87
2021/07/23 09:23:31;;;;;;;11.87;10.67;;;23.60;99.90;;;;;;6241426;22;20582;-87
2021/07/23 09:26:11;;;;;;;12.17;11.00;;;24.00;99.90;;;;;;6243372;22;20971;-87
2021/07/23 09:28:39;;;;;;;15.67;12.37;;;24.30;98.70;;;;;;6242862;22;20503;-87
2021/07/23 09:31:06;;;;;;;13.07;11.77;;;24.50;97.40;;;;;;6241392;22;20404;-87
2021/07/23 09:33:40;;;;;;;13.50;11.53;;;24.70;99.90;;;;;;6238620;22;20393;-87
2021/07/23 09:36:09;;;;;;;13.13;11.90;;;24.80;99.90;;;;;;6241890;22;20824;-87
2021/07/23 09:38:35;;;;;;;12.57;11.37;;;25.00;99.90;;;;;;6242069;22;20931;-87
2021/07/23 09:41:01;;;;;;;13.60;12.40;;;25.00;97.40;;;;;;6269304;22;20460;-87
2021/07/23 09:43:38;;;;;;;11.33;10.33;;;25.00;99.90;;;;;;6242398;22;20158;-87
2021/07/23 09:46:16;;;;;;;12.57;11.27;;;25.20;99.90;;;;;;6241874;22;20393;-88
2021/07/23 09:48:45;;;;;;;12.07;10.87;;;25.00;97.30;;;;;;6242040;22;20380;-87
2021/07/23 09:51:14;;;;;;;13.20;11.77;;;25.20;98.80;;;;;;6234919;22;20420;-87
2021/07/23 09:53:40;;;;;;;13.77;12.47;;;25.30;97.90;;;;;;6240502;22;20377;-88
2021/07/23 09:56:08;;;;;;;11.87;10.77;;;25.40;98.70;;;;;;6242243;22;20408;-87
2021/07/23 09:58:39;;;;;;;12.83;11.63;;;25.30;97.10;;;;;;6241603;22;20389;-87
2021/07/23 10:01:11;;;;;;;12.03;10.57;;;25.60;98.30;;;;;;6241032;22;20492;-87
2021/07/23 10:03:41;;;;;;;12.60;11.40;;;25.90;96.70;;;;;;6242379;22;20472;-87
2021/07/23 10:06:10;;;;;;;11.77;10.57;;;25.50;95.80;;;;;;6241466;22;20397;-87
2021/07/23 10:08:42;;;;;;;12.43;11.33;;;25.50;97.50;;;;;;6240570;22;20405;-87
2021/07/23 10:11:11;;;;;;;12.43;11.17;;;25.90;96.70;;;;;;6238035;22;20446;-87
2021/07/23 10:13:41;;;;;;;11.83;10.73;;;26.00;94.20;;;;;;6240990;22;20836;-87
2021/07/23 10:16:10;;;;;;;13.17;11.83;;;26.00;94.80;;;;;;6241999;22;20393;-86
2021/07/23 10:18:38;;;;;;;11.93;10.73;;;26.00;96.00;;;;;;6240986;22;20832;-87
2021/07/23 10:21:04;;;;;;;11.70;10.70;;;26.30;96.00;;;;;;6240375;22;20393;-86
2021/07/23 10:23:31;;;;;;;11.30;10.20;;;26.40;92.40;;;;;;6242310;22;20393;-87
2021/07/23 10:25:58;;;;;;;12.47;11.27;;;26.40;93.10;;;;;;6236225;22;20726;-87
2021/07/23 10:28:54;;;;;;;11.37;10.40;;;26.50;93.30;;;;;;6239271;22;20412;-88
2021/07/23 10:31:21;;;;;;;11.50;10.50;;;26.60;96.20;;;;;;6210150;22;20399;-87
2021/07/23 10:34:04;;;;;;;14.20;11.43;;;26.50;94.70;;;;;;6240694;22;20425;-87
2021/07/23 10:36:40;;;;;;;12.43;11.23;;;26.50;95.70;;;;;;6239645;22;20774;-88
2021/07/23 10:39:06;;;;;;;11.83;10.83;;;26.90;93.80;;;;;;6240916;22;20440;-87
2021/07/23 10:41:32;;;;;;;11.50;10.50;;;27.10;93.70;;;;;;6239088;22;20455;-88
2021/07/23 10:43:58;;;;;;;11.77;10.80;;;27.40;90.90;;;;;;6240312;22;20713;-87
2021/07/23 10:46:45;;;;;;;11.37;10.27;;;27.40;93.10;;;;;;6241106;22;21080;-88
2021/07/23 10:49:31;;;;;;;11.50;10.50;;;27.50;93.40;;;;;;6242580;22;20423;-87
2021/07/23 10:52:01;;;;;;;11.00;10.00;;;27.90;92.20;;;;;;6241242;22;20390;-87
2021/07/23 10:54:29;;;;;;;11.50;10.27;;;28.00;91.50;;;;;;6240631;22;20420;-88
2021/07/23 10:57:02;;;;;;;11.20;10.30;;;28.10;92.50;;;;;;6216423;22;20421;-88
2021/07/23 10:59:42;;;;;;;11.80;10.80;;;28.40;93.70;;;;;;6240549;22;20494;-87
2021/07/23 11:02:31;;;;;;;11.73;10.67;;;28.00;91.60;;;;;;6242112;22;20479;-87
2021/07/23 11:05:27;;;;;;;11.00;9.90;;;28.00;90.90;;;;;;6242425;22;20391;-87
2021/07/23 11:07:57;;;;;;;11.80;10.60;;;28.00;87.10;;;;;;6239603;22;20435;-87
2021/07/23 11:10:23;;;;;;;12.53;11.33;;;28.20;89.20;;;;;;6236849;22;20389;-87
2021/07/23 11:12:49;;;;;;;12.40;11.30;;;28.00;90.30;;;;;;6239853;22;20383;-87
2021/07/23 11:15:15;;;;;;;12.27;11.17;;;28.10;88.00;;;;;;6240825;22;20662;-87
2021/07/23 11:17:53;;;;;;;12.00;10.80;;;28.20;90.70;;;;;;6240869;22;20385;-87
2021/07/23 11:20:24;;;;;;;11.53;10.50;;;27.60;86.30;;;;;;6240202;22;20770;-87
2021/07/23 11:22:52;;;;;;;12.40;11.20;;;27.40;87.80;;;;;;6214844;22;20393;-87
2021/07/23 11:25:19;;;;;;;11.27;10.20;;;27.60;89.40;;;;;;6242439;22;20404;-87
2021/07/23 11:27:45;;;;;;;12.00;10.20;;;27.70;90.10;;;;;;6239974;22;20423;-87
2021/07/23 11:30:22;;;;;;;11.70;10.70;;;28.10;89.40;;;;;;6240519;22;20813;-88
2021/07/23 11:32:48;;;;;;;11.83;10.77;;;28.10;90.20;;;;;;6241347;22;20158;-88
2021/07/23 11:35:14;;;;;;;14.83;11.57;;;28.50;91.20;;;;;;6239498;22;20403;-87
2021/07/23 11:37:41;;;;;;;11.70;10.70;;;28.80;89.40;;;;;;6239643;22;20388;-88
2021/07/23 11:40:08;;;;;;;11.67;10.50;;;28.70;90.10;;;;;;6239877;22;20448;-88
2021/07/23 11:42:42;;;;;;;12.00;10.00;;;28.70;88.60;;;;;;6240923;22;20416;-88
2021/07/23 11:45:10;;;;;;;11.13;10.23;;;28.80;88.90;;;;;;6241525;22;20396;-87
2021/07/23 11:47:37;;;;;;;12.10;11.00;;;29.00;88.90;;;;;;6241457;22;20476;-88
2021/07/23 11:50:07;;;;;;;11.97;10.97;;;28.80;88.40;;;;;;6240523;22;20427;-87
2021/07/23 11:52:34;;;;;;;11.20;10.20;;;29.20;87.60;;;;;;6240792;22;20389;-88
2021/07/23 11:55:02;;;;;;;12.50;10.73;;;29.40;86.00;;;;;;6242373;22;20385;-88
2021/07/23 11:57:47;;;;;;;12.20;11.10;;;29.20;85.80;;;;;;6240304;22;20392;-88
2021/07/23 12:00:19;;;;;;;11.33;10.23;;;29.20;86.20;;;;;;6240373;22;20510;-88
2021/07/23 12:02:50;;;;;;;11.03;10.00;;;29.00;87.70;;;;;;6241720;22;20392;-88
2021/07/23 12:05:16;;;;;;;11.57;10.57;;;29.10;86.60;;;;;;6240894;22;20450;-88
2021/07/23 12:07:49;;;;;;;11.30;10.40;;;29.20;85.60;;;;;;6241406;22;20388;-88
2021/07/23 12:10:16;;;;;;;10.60;9.70;;;29.30;84.40;;;;;;6241106;22;20420;-87
2021/07/23 12:12:43;;;;;;;12.10;11.00;;;29.30;84.20;;;;;;6240165;22;20398;-87
2021/07/23 12:15:11;;;;;;;12.23;11.03;;;29.40;87.80;;;;;;6241489;22;20765;-88
2021/07/23 12:17:41;;;;;;;11.60;10.43;;;28.40;79.50;;;;;;6261469;22;20396;-87
2021/07/23 12:20:08;;;;;;;11.90;10.80;;;28.00;82.30;;;;;;6241245;22;20578;-88
2021/07/23 12:22:34;;;;;;;12.37;11.37;;;27.30;84.80;;;;;;6239728;22;20384;-88
2021/07/23 12:25:20;;;;;;;11.73;10.63;;;27.60;84.70;;;;;;6240409;22;20397;-88
2021/07/23 12:27:47;;;;;;;11.77;10.67;;;28.30;82.80;;;;;;6239987;22;20419;-88
2021/07/23 12:30:13;;;;;;;11.47;10.43;;;28.50;83.80;;;;;;6238393;22;20389;-88
2021/07/23 12:32:39;;;;;;;11.70;10.70;;;28.80;79.70;;;;;;6215445;22;20390;-87
2021/07/23 12:35:06;;;;;;;11.83;10.70;;;28.80;82.80;;;;;;6238454;22;20556;-87
2021/07/23 12:37:32;;;;;;;12.17;10.93;;;28.40;78.00;;;;;;6241030;22;20155;-88
2021/07/23 12:40:02;;;;;;;11.40;10.40;;;28.20;79.10;;;;;;6240377;22;20427;-88